createdAt,value
2019-05-10T00:00:58.990Z,29.77
2019-05-10T00:03:48.569Z,31.70
2019-05-10T00:06:37.795Z,29.75
2019-05-10T00:09:09.050Z,30.80
2019-05-10T00:11:49.332Z,27.43
2019-05-10T00:14:25.580Z,30.75
2019-05-10T00:19:29.514Z,27.70
2019-05-10T00:22:01.328Z,25.88
2019-05-10T00:24:33.049Z,28.75
2019-05-10T00:27:04.834Z,25.80
2019-05-10T00:29:36.465Z,24.60
2019-05-10T00:32:08.157Z,24.87
2019-05-10T00:34:40.755Z,26.37
2019-05-10T00:37:12.483Z,26.97
2019-05-10T00:39:44.998Z,24.43
2019-05-10T00:42:16.655Z,23.05
2019-05-10T00:44:48.300Z,25.88
2019-05-10T00:47:19.935Z,21.87
2019-05-10T00:49:51.753Z,24.47
2019-05-10T00:52:23.467Z,22.87
2019-05-10T00:54:55.237Z,23.10
2019-05-10T00:57:26.980Z,22.13
2019-05-10T00:59:58.639Z,19.10
2019-05-10T01:02:30.247Z,21.48
2019-05-10T01:05:02.055Z,21.70
2019-05-10T01:07:33.707Z,22.45
2019-05-10T01:10:08.810Z,20.45
2019-05-10T01:12:40.600Z,20.25
2019-05-10T01:15:12.433Z,20.30
2019-05-10T01:17:44.238Z,20.85
2019-05-10T01:20:15.961Z,21.75
2019-05-10T01:22:47.676Z,21.50
2019-05-10T01:25:34.031Z,21.12
2019-05-10T01:27:52.872Z,23.77
2019-05-10T01:30:24.628Z,23.70
2019-05-10T01:32:56.531Z,23.02
2019-05-10T01:35:28.256Z,25.12
2019-05-10T01:37:59.843Z,29.23
2019-05-10T01:40:31.519Z,28.57
2019-05-10T01:43:03.223Z,27.67
2019-05-10T01:45:34.816Z,24.90
2019-05-10T01:48:06.528Z,26.90
2019-05-10T01:50:38.189Z,30.00
2019-05-10T01:53:09.901Z,30.90
2019-05-10T01:55:51.534Z,34.10
2019-05-10T01:58:14.901Z,30.90
2019-05-10T02:00:46.537Z,30.25
2019-05-10T02:03:18.202Z,27.45
2019-05-10T02:05:49.834Z,33.05
2019-05-10T02:08:21.686Z,33.90
2019-05-10T02:10:53.391Z,35.60
2019-05-10T02:13:24.931Z,32.03
2019-05-10T02:15:56.664Z,37.25
2019-05-10T02:18:28.520Z,36.95
2019-05-10T02:21:00.324Z,40.12
2019-05-10T02:23:32.093Z,39.03
2019-05-10T02:26:09.540Z,42.98
2019-05-10T02:28:37.078Z,41.70
2019-05-10T02:31:08.636Z,37.78
2019-05-10T02:33:40.380Z,35.85
2019-05-10T02:36:12.068Z,37.80
2019-05-10T02:38:43.824Z,44.30
2019-05-10T02:41:15.690Z,38.48
2019-05-10T02:43:47.393Z,43.68
2019-05-10T02:46:19.116Z,40.33
2019-05-10T02:48:50.745Z,38.42
2019-05-10T02:51:22.360Z,36.38
2019-05-10T02:53:54.370Z,40.40
2019-05-10T02:56:31.457Z,41.65
2019-05-10T02:59:01.557Z,40.10
2019-05-10T03:01:34.687Z,44.95
2019-05-10T03:04:06.377Z,41.10
2019-05-10T03:06:41.191Z,43.30
2019-05-10T03:09:14.194Z,43.40
2019-05-10T03:11:47.906Z,46.05
2019-05-10T03:14:20.406Z,48.23
2019-05-10T03:16:52.241Z,44.10
2019-05-10T03:19:24.741Z,42.40
2019-05-10T03:22:07.096Z,44.80
2019-05-10T03:24:38.943Z,37.35
2019-05-10T03:27:10.631Z,41.53
2019-05-10T03:29:42.383Z,39.50
2019-05-10T03:32:14.181Z,35.00
2019-05-10T03:34:46.139Z,33.78
2019-05-10T03:37:18.018Z,31.73
2019-05-10T03:39:49.874Z,31.17
2019-05-10T03:42:21.743Z,34.18
2019-05-10T03:44:53.778Z,32.30
2019-05-10T03:47:25.535Z,29.52
2019-05-10T03:49:57.339Z,28.23
2019-05-10T03:52:29.221Z,28.07
2019-05-10T03:55:03.259Z,27.27
2019-05-10T03:57:34.902Z,26.82
2019-05-10T04:00:14.276Z,22.70
2019-05-10T04:02:46.172Z,21.45
2019-05-10T04:05:18.384Z,21.30
2019-05-10T04:07:50.283Z,22.10
2019-05-10T04:10:22.155Z,23.12
2019-05-10T04:12:53.742Z,21.07
2019-05-10T04:15:25.581Z,17.80
2019-05-10T04:17:57.224Z,23.80
2019-05-10T04:20:28.841Z,17.65
2019-05-10T04:23:01.436Z,19.57
2019-05-10T04:25:35.511Z,22.55
2019-05-10T04:28:08.775Z,19.73
2019-05-10T04:30:40.720Z,19.10
2019-05-10T04:33:13.055Z,18.10
2019-05-10T04:35:44.929Z,17.10
2019-05-10T04:38:18.014Z,19.60
2019-05-10T04:40:49.706Z,21.75
2019-05-10T04:43:21.430Z,17.70
2019-05-10T04:45:53.027Z,18.07
2019-05-10T04:48:26.116Z,15.00
2019-05-10T04:50:57.791Z,15.30
2019-05-10T04:53:29.437Z,14.45
2019-05-10T04:56:01.108Z,17.35
2019-05-10T04:58:32.662Z,12.68
2019-05-10T05:01:04.373Z,12.03
2019-05-10T05:03:36.140Z,14.55
2019-05-10T05:06:07.829Z,12.45
2019-05-10T05:08:39.631Z,14.63
2019-05-10T05:11:11.375Z,14.80
2019-05-10T05:13:45.330Z,13.43
2019-05-10T05:16:18.247Z,15.80
2019-05-10T05:18:50.187Z,15.00
2019-05-10T05:21:21.894Z,14.25
2019-05-10T05:23:53.529Z,13.83
2019-05-10T05:26:25.136Z,14.30
2019-05-10T05:28:56.959Z,14.23
2019-05-10T05:31:28.739Z,14.15
2019-05-10T05:34:05.069Z,15.30
2019-05-10T05:36:33.960Z,16.65
2019-05-10T05:39:07.688Z,13.53
2019-05-10T05:41:48.729Z,16.45
2019-05-10T05:44:14.047Z,14.65
2019-05-10T05:46:46.795Z,14.45
2019-05-10T05:49:18.603Z,14.40
2019-05-10T05:51:50.247Z,12.33
2019-05-10T05:54:22.643Z,13.68
2019-05-10T05:56:54.820Z,10.28
2019-05-10T05:59:27.619Z,13.20
2019-05-10T06:02:00.889Z,10.25
2019-05-10T06:04:32.694Z,14.28
2019-05-10T06:07:05.600Z,13.53
2019-05-10T06:09:39.379Z,11.63
2019-05-10T06:12:12.806Z,10.55
2019-05-10T06:14:49.791Z,11.97
2019-05-10T06:17:18.042Z,12.30
2019-05-10T06:19:49.892Z,7.45
2019-05-10T06:22:21.609Z,7.03
2019-05-10T06:24:53.984Z,7.45
2019-05-10T06:27:25.983Z,9.63
2019-05-10T06:29:58.648Z,9.73
2019-05-10T06:32:37.902Z,6.97
2019-05-10T06:35:14.207Z,6.87
2019-05-10T06:37:42.922Z,7.67
2019-05-10T06:40:15.084Z,5.78
2019-05-10T06:42:46.654Z,6.15
2019-05-10T06:45:18.319Z,6.10
2019-05-10T06:47:53.287Z,6.47
2019-05-10T06:50:30.389Z,7.00
2019-05-10T06:53:00.399Z,5.03
2019-05-10T06:55:29.878Z,4.65
2019-05-10T06:58:01.441Z,5.33
2019-05-10T07:00:38.233Z,6.28
2019-05-10T07:03:06.335Z,6.10
2019-05-10T07:05:38.526Z,5.15
2019-05-10T07:08:19.753Z,5.30
2019-05-10T07:10:43.465Z,5.58
2019-05-10T07:13:15.073Z,5.83
2019-05-10T07:15:46.546Z,5.40
2019-05-10T07:18:22.663Z,5.72
2019-05-10T07:20:52.985Z,4.20
2019-05-10T07:23:24.590Z,6.15
2019-05-10T07:25:56.156Z,5.53
2019-05-10T07:28:28.694Z,5.25
2019-05-10T07:31:00.717Z,4.72
2019-05-10T07:33:37.234Z,4.80
2019-05-10T07:36:14.399Z,3.90
2019-05-10T07:38:39.983Z,5.50
2019-05-10T07:41:19.593Z,4.70
2019-05-10T07:43:48.308Z,4.70
2019-05-10T07:46:21.389Z,4.90
2019-05-10T07:48:57.828Z,4.25
2019-05-10T07:51:30.483Z,4.37
2019-05-10T07:54:04.750Z,4.40
2019-05-10T07:56:38.980Z,5.90
2019-05-10T07:59:08.732Z,4.45
2019-05-10T08:01:40.301Z,4.20
2019-05-10T08:04:13.143Z,4.55
2019-05-10T08:06:51.137Z,4.50
2019-05-10T08:09:21.446Z,3.80
2019-05-10T08:11:54.011Z,4.22
2019-05-10T08:14:28.812Z,3.72
2019-05-10T08:17:05.860Z,4.17
2019-05-10T08:19:37.649Z,4.08
2019-05-10T08:22:10.233Z,4.03
2019-05-10T08:24:46.521Z,4.12
2019-05-10T08:27:23.021Z,3.92
2019-05-10T08:30:19.661Z,4.35
2019-05-10T08:35:05.031Z,2.98
2019-05-10T08:37:38.146Z,3.67
2019-05-10T08:40:35.157Z,4.28
2019-05-10T08:43:16.659Z,3.80
2019-05-10T08:45:49.542Z,4.80
2019-05-10T08:48:20.006Z,3.87
2019-05-10T08:50:57.122Z,4.28
2019-05-10T08:53:25.044Z,4.60
2019-05-10T08:55:58.797Z,4.65
2019-05-10T08:58:36.977Z,5.22
2019-05-10T09:01:20.084Z,4.97
2019-05-10T09:03:38.264Z,4.50
2019-05-10T09:06:14.283Z,4.30
2019-05-10T09:08:43.408Z,4.83
2019-05-10T09:11:16.391Z,4.60
2019-05-10T09:13:48.835Z,4.87
2019-05-10T09:16:23.677Z,5.45
2019-05-10T09:18:56.884Z,7.00
2019-05-10T09:21:29.183Z,8.13
2019-05-10T09:24:06.242Z,9.33
2019-05-10T09:26:34.906Z,8.65
2019-05-10T09:29:06.575Z,10.53
2019-05-10T09:31:39.382Z,7.05
2019-05-10T09:34:12.297Z,8.38
2019-05-10T09:36:47.018Z,6.55
2019-05-10T09:39:21.783Z,8.50
2019-05-10T09:41:52.753Z,8.90
2019-05-10T09:44:24.092Z,10.13
2019-05-10T09:46:55.737Z,8.63
2019-05-10T09:49:27.574Z,7.80
2019-05-10T09:52:04.497Z,7.40
2019-05-10T09:54:33.822Z,5.12
2019-05-10T09:57:08.058Z,4.80
2019-05-10T09:59:38.813Z,4.92
2019-05-10T10:02:16.481Z,4.83
2019-05-10T10:04:47.220Z,4.90
2019-05-10T10:07:24.271Z,3.80
2019-05-10T10:09:53.986Z,4.50
2019-05-10T10:12:25.519Z,4.05
2019-05-10T10:14:57.036Z,3.77
2019-05-10T10:17:30.727Z,4.33
2019-05-10T10:20:02.463Z,4.03
2019-05-10T10:22:34.672Z,4.20
2019-05-10T10:25:08.108Z,3.92
2019-05-10T10:27:39.815Z,3.90
2019-05-10T10:30:14.962Z,4.12
2019-05-10T10:32:47.706Z,4.00
2019-05-10T10:37:57.337Z,4.08
2019-05-10T10:40:27.847Z,3.33
2019-05-10T10:42:59.643Z,5.03
2019-05-10T10:45:31.145Z,4.72
2019-05-10T10:48:10.699Z,3.83
2019-05-10T10:50:36.028Z,4.20
2019-05-10T10:53:08.356Z,4.35
2019-05-10T10:55:40.345Z,5.17
2019-05-10T10:58:12.621Z,9.40
2019-05-10T11:00:44.156Z,6.70
2019-05-10T11:03:15.694Z,5.37
2019-05-10T11:05:47.265Z,5.80
2019-05-10T11:08:18.886Z,5.25
2019-05-10T11:10:50.809Z,5.85
2019-05-10T11:13:40.577Z,5.58
2019-05-10T11:15:58.847Z,6.45
2019-05-10T11:18:31.788Z,7.90
2019-05-10T11:21:03.108Z,6.45
2019-05-10T11:23:38.991Z,5.58
2019-05-10T11:26:07.886Z,7.60
2019-05-10T11:28:43.887Z,8.78
2019-05-10T11:31:12.765Z,7.53
2019-05-10T11:33:47.378Z,9.75
2019-05-10T11:36:17.743Z,8.58
2019-05-10T11:38:56.534Z,8.20
2019-05-10T11:41:24.633Z,9.03
2019-05-10T11:43:58.068Z,7.80
2019-05-10T11:46:31.123Z,9.00
2019-05-10T11:49:04.719Z,8.18
2019-05-10T11:51:37.362Z,9.38
2019-05-10T11:54:11.017Z,11.70
2019-05-10T11:56:43.203Z,13.00
2019-05-10T11:59:16.533Z,13.13
2019-05-10T12:01:55.089Z,7.65
2019-05-10T12:04:28.962Z,4.70
2019-05-10T12:06:54.920Z,5.53
2019-05-10T12:09:26.519Z,5.03
2019-05-10T12:11:58.151Z,5.35
2019-05-10T12:14:30.739Z,7.53
2019-05-10T12:17:06.320Z,4.72
2019-05-10T12:19:44.547Z,6.00
2019-05-10T12:22:15.473Z,7.45
2019-05-10T12:24:53.972Z,5.25
2019-05-10T12:27:25.514Z,4.95
2019-05-10T12:29:55.438Z,6.83
2019-05-10T12:32:27.034Z,6.25
2019-05-10T12:34:57.929Z,5.72
2019-05-10T12:37:30.797Z,7.83
2019-05-10T12:40:09.787Z,6.30
2019-05-10T12:42:36.597Z,8.60
2019-05-10T12:45:10.188Z,10.30
2019-05-10T12:47:41.842Z,7.37
2019-05-10T12:50:16.398Z,5.10
2019-05-10T12:52:53.544Z,5.95
2019-05-10T12:55:21.295Z,4.80
2019-05-10T12:57:53.165Z,5.42
2019-05-10T13:00:24.914Z,12.58
2019-05-10T13:03:11.526Z,10.90
2019-05-10T13:05:33.949Z,9.58
2019-05-10T13:08:11.640Z,9.08
2019-05-10T13:10:45.845Z,8.20
2019-05-10T13:13:17.553Z,8.98
2019-05-10T13:15:49.783Z,9.28
2019-05-10T13:18:23.102Z,8.23
2019-05-10T13:20:55.059Z,6.83
2019-05-10T13:23:26.975Z,8.00
2019-05-10T13:25:59.207Z,7.35
2019-05-10T13:28:32.613Z,7.70
2019-05-10T13:31:05.553Z,8.70
2019-05-10T13:33:42.111Z,9.35
2019-05-10T13:36:11.887Z,8.00
2019-05-10T13:38:48.569Z,5.87
2019-05-10T13:41:24.457Z,4.85
2019-05-10T13:46:23.950Z,6.45
2019-05-10T13:48:55.690Z,4.35
2019-05-10T13:51:27.288Z,4.53
2019-05-10T13:54:00.838Z,4.55
2019-05-10T13:56:34.319Z,4.47
2019-05-10T13:59:15.385Z,4.75
2019-05-10T14:01:44.227Z,4.55
2019-05-10T14:04:23.264Z,5.47
2019-05-10T14:06:57.770Z,6.95
2019-05-10T14:09:29.718Z,9.60
2019-05-10T14:12:01.315Z,10.80
2019-05-10T14:14:35.499Z,9.68
2019-05-10T14:17:07.267Z,9.23
2019-05-10T14:19:39.316Z,14.35
2019-05-10T14:22:11.614Z,11.83
2019-05-10T14:24:46.791Z,11.35
2019-05-10T14:27:16.557Z,10.90
2019-05-10T14:29:48.218Z,10.55
2019-05-10T14:32:19.945Z,10.78
2019-05-10T14:34:51.698Z,9.25
2019-05-10T14:37:23.252Z,9.45
2019-05-10T14:39:54.889Z,14.15
2019-05-10T14:42:31.079Z,11.90
2019-05-10T14:45:00.124Z,9.30
2019-05-10T14:47:31.620Z,8.55
2019-05-10T14:50:04.056Z,8.68
2019-05-10T14:52:36.139Z,8.10
2019-05-10T14:55:07.790Z,8.88
2019-05-10T14:57:39.299Z,6.65
2019-05-10T15:00:11.577Z,6.50
2019-05-10T15:02:44.894Z,6.40
2019-05-10T15:05:18.276Z,6.67
2019-05-10T15:07:51.186Z,6.87
2019-05-10T15:10:23.302Z,6.95
2019-05-10T15:12:56.040Z,6.45
2019-05-10T15:15:30.940Z,6.03
2019-05-10T15:18:02.223Z,6.35
2019-05-10T15:20:36.094Z,7.03
2019-05-10T15:23:07.467Z,8.63
2019-05-10T15:25:55.773Z,10.32
2019-05-10T15:28:15.520Z,10.43
2019-05-10T15:30:52.582Z,10.30
2019-05-10T15:33:26.059Z,9.17
2019-05-10T15:35:58.747Z,7.97
2019-05-10T15:38:30.389Z,8.10
2019-05-10T15:41:02.016Z,11.25
2019-05-10T15:43:35.181Z,13.93
2019-05-10T15:46:07.531Z,10.48
2019-05-10T15:48:41.689Z,8.33
2019-05-10T15:51:16.900Z,7.12
2019-05-10T15:53:46.756Z,9.75
2019-05-10T15:56:21.622Z,8.23
2019-05-10T15:58:53.129Z,7.97
2019-05-10T16:01:29.182Z,8.28
2019-05-10T16:04:02.099Z,8.45
2019-05-10T16:06:37.816Z,9.93
2019-05-10T16:09:16.903Z,9.48
2019-05-10T16:11:42.215Z,8.28
2019-05-10T16:14:13.775Z,8.50
2019-05-10T16:16:48.779Z,12.03
2019-05-10T16:19:22.059Z,9.93
2019-05-10T16:21:58.117Z,10.88
2019-05-10T16:24:29.193Z,15.18
2019-05-10T16:27:02.858Z,11.97
2019-05-10T16:29:39.717Z,10.75
2019-05-10T16:32:13.059Z,11.12
2019-05-10T16:34:47.993Z,14.53
2019-05-10T16:37:20.698Z,17.12
2019-05-10T16:39:55.408Z,16.07
2019-05-10T16:42:28.002Z,21.45
2019-05-10T16:45:02.036Z,30.10
2019-05-10T16:47:33.941Z,38.23
2019-05-10T16:50:08.631Z,83.20
2019-05-10T16:52:40.273Z,15.15
2019-05-10T16:55:14.429Z,13.98
2019-05-10T16:57:47.538Z,11.50
2019-05-10T17:00:19.456Z,22.25
2019-05-10T17:02:51.278Z,20.43
2019-05-10T17:05:23.023Z,13.13
2019-05-10T17:07:58.824Z,13.22
2019-05-10T17:10:32.932Z,37.98
2019-05-10T17:13:05.027Z,16.93
2019-05-10T17:15:39.688Z,13.72
2019-05-10T17:18:16.679Z,11.43
2019-05-10T17:20:50.945Z,11.00
2019-05-10T17:23:22.758Z,10.85
2019-05-10T17:25:55.201Z,30.30
2019-05-10T17:28:29.583Z,32.23
2019-05-10T17:31:07.910Z,15.13
2019-05-10T17:33:42.687Z,13.40
2019-05-10T17:36:14.446Z,13.53
2019-05-10T17:38:53.401Z,13.08
2019-05-10T17:41:26.961Z,11.50
2019-05-10T17:44:00.056Z,13.40
2019-05-10T17:46:36.314Z,15.18
2019-05-10T17:49:08.019Z,14.93
2019-05-10T17:51:41.810Z,18.02
2019-05-10T17:54:13.551Z,19.20
2019-05-10T17:56:45.319Z,20.75
2019-05-10T17:59:21.825Z,20.45
2019-05-10T18:01:54.678Z,18.27
2019-05-10T18:04:27.779Z,18.40
2019-05-10T18:07:00.623Z,18.27
2019-05-10T18:09:35.697Z,18.85
2019-05-10T18:12:15.664Z,19.73
2019-05-10T18:14:50.141Z,17.02
2019-05-10T18:17:25.973Z,19.37
2019-05-10T18:20:02.352Z,17.55
2019-05-10T18:22:43.318Z,15.70
2019-05-10T18:25:19.554Z,18.55
2019-05-10T18:27:48.029Z,17.02
2019-05-10T18:30:24.531Z,16.60
2019-05-10T18:33:00.493Z,19.30
2019-05-10T18:35:37.199Z,17.52
2019-05-10T18:38:14.903Z,18.15
2019-05-10T18:40:47.636Z,17.50
2019-05-10T18:43:19.348Z,17.40
2019-05-10T18:45:54.079Z,19.02
2019-05-10T18:48:29.829Z,21.55
2019-05-10T18:51:04.650Z,20.52
2019-05-10T18:53:36.315Z,18.98
2019-05-10T18:56:11.373Z,20.52
2019-05-10T18:58:44.924Z,19.73
2019-05-10T19:01:38.850Z,22.65
2019-05-10T19:04:07.183Z,19.90
2019-05-10T19:06:50.008Z,19.30
2019-05-10T19:09:20.489Z,19.55
2019-05-10T19:11:58.404Z,17.85
2019-05-10T19:14:35.221Z,20.50
2019-05-10T19:17:09.440Z,18.90
2019-05-10T19:19:42.484Z,17.55
2019-05-10T19:22:14.650Z,20.43
2019-05-10T19:24:56.676Z,21.20
2019-05-10T19:27:29.825Z,20.32
2019-05-10T19:30:01.439Z,20.00
2019-05-10T19:32:39.214Z,20.10
2019-05-10T19:35:11.147Z,21.02
2019-05-10T19:37:43.232Z,22.30
2019-05-10T19:40:18.031Z,20.23
2019-05-10T19:42:49.832Z,20.32
2019-05-10T19:45:21.966Z,21.87
2019-05-10T19:47:55.787Z,23.20
2019-05-10T19:50:31.380Z,24.37
2019-05-10T19:53:05.481Z,23.05
2019-05-10T19:55:37.526Z,24.98
2019-05-10T19:58:09.298Z,23.85
2019-05-10T20:00:41.963Z,24.40
2019-05-10T20:03:14.182Z,24.25
2019-05-10T20:05:45.983Z,25.90
2019-05-10T20:08:18.642Z,26.15
2019-05-10T20:10:51.133Z,29.30
2019-05-10T20:13:24.454Z,26.17
2019-05-10T20:15:56.356Z,27.75
2019-05-10T20:18:30.552Z,27.85
2019-05-10T20:21:04.181Z,26.77
2019-05-10T20:23:35.776Z,27.30
2019-05-10T20:26:07.676Z,26.93
2019-05-10T20:28:39.445Z,25.12
2019-05-10T20:31:12.598Z,26.00
2019-05-10T20:33:48.841Z,28.95
2019-05-10T20:36:20.687Z,26.05
2019-05-10T20:38:52.786Z,26.80
2019-05-10T20:41:24.546Z,24.20
2019-05-10T20:43:56.855Z,28.65
2019-05-10T20:46:28.569Z,30.72
2019-05-10T20:49:01.753Z,24.95
2019-05-10T20:51:33.486Z,27.07
2019-05-10T20:54:06.967Z,26.25
2019-05-10T20:56:38.818Z,27.90
2019-05-10T20:59:10.584Z,23.77
2019-05-10T21:01:45.660Z,27.07
2019-05-10T21:04:19.921Z,26.20
2019-05-10T21:06:53.155Z,28.15
2019-05-10T21:09:30.541Z,26.65
2019-05-10T21:12:03.511Z,24.72
2019-05-10T21:14:38.300Z,22.98
2019-05-10T21:17:10.149Z,24.15
2019-05-10T21:19:43.846Z,23.38
2019-05-10T21:22:15.483Z,23.85
2019-05-10T21:24:50.633Z,24.43
2019-05-10T21:27:26.474Z,22.95
2019-05-10T21:29:58.261Z,21.62
2019-05-10T21:32:30.105Z,21.20
2019-05-10T21:35:01.734Z,22.75
2019-05-10T21:37:33.453Z,22.45
2019-05-10T21:40:07.787Z,20.72
2019-05-10T21:42:41.240Z,21.68
2019-05-10T21:45:15.219Z,20.88
2019-05-10T21:47:51.777Z,21.10
2019-05-10T21:50:20.639Z,21.10
2019-05-10T21:52:53.776Z,19.15
2019-05-10T21:55:27.072Z,20.00
2019-05-10T21:57:59.058Z,22.35
2019-05-10T22:00:34.018Z,28.07
2019-05-10T22:03:06.608Z,30.15
2019-05-10T22:05:38.878Z,31.27
2019-05-10T22:08:10.618Z,29.95
2019-05-10T22:10:42.410Z,32.28
2019-05-10T22:13:14.373Z,33.20
2019-05-10T22:15:46.110Z,30.23
2019-05-10T22:18:17.899Z,25.50
2019-05-10T22:20:49.710Z,22.07
2019-05-10T22:23:21.564Z,24.95
2019-05-10T22:25:53.295Z,25.72
2019-05-10T22:28:24.895Z,27.17
2019-05-10T22:30:56.574Z,27.85
2019-05-10T22:33:28.275Z,24.55
2019-05-10T22:36:00.182Z,23.12
2019-05-10T22:38:31.893Z,19.77
2019-05-10T22:41:03.749Z,17.60
2019-05-10T22:43:35.499Z,17.98
2019-05-10T22:46:07.199Z,20.17
2019-05-10T22:48:38.960Z,16.07
2019-05-10T22:51:10.718Z,18.40
2019-05-10T22:53:42.349Z,14.63
2019-05-10T22:56:13.965Z,16.23
2019-05-10T22:58:45.664Z,15.75
2019-05-10T23:01:17.494Z,19.10
2019-05-10T23:03:49.255Z,21.33
2019-05-10T23:06:20.987Z,27.58
2019-05-10T23:08:52.796Z,26.68
2019-05-10T23:11:24.620Z,26.40
2019-05-10T23:13:56.445Z,28.05
2019-05-10T23:16:29.889Z,29.02
2019-05-10T23:19:01.688Z,31.35
2019-05-10T23:21:33.329Z,28.80
2019-05-10T23:24:06.824Z,27.17
2019-05-10T23:26:39.582Z,27.60
2019-05-10T23:29:11.256Z,30.68
2019-05-10T23:31:42.968Z,28.00
2019-05-10T23:34:14.999Z,26.52
2019-05-10T23:36:46.675Z,23.52
2019-05-10T23:39:18.433Z,25.40
2019-05-10T23:41:50.146Z,22.82
2019-05-10T23:44:21.995Z,25.02
2019-05-10T23:46:54.313Z,24.50
2019-05-10T23:49:26.007Z,24.27
2019-05-10T23:51:57.720Z,21.90
2019-05-10T23:54:29.691Z,22.80
2019-05-10T23:57:02.728Z,21.65
2019-05-10T23:59:34.515Z,22.37
